Time;durP1;ratioP1;P1;durP2;ratioP2;P2;SDS_P1;SDS_P2;PMS_P1;PMS_P2;Temp;Humidity;BMP_temperature;BMP_pressure;BME280_temperature;BME280_humidity;BME280_pressure;Samples;Min_cycle;Max_cycle;Signal;HPM_P1;HPM_P2
2021/01/11 00:00:21;;;;;;;112.43;54.38;;;3.00;99.90;;;;;;5020162;28;20105;-76
2021/01/11 00:02:48;;;;;;;113.00;51.67;;;3.00;99.90;;;;;;5017196;28;20095;-76
2021/01/11 00:05:14;;;;;;;109.75;50.40;;;3.00;99.90;;;;;;5023022;28;20029;-75
2021/01/11 00:07:43;;;;;;;116.53;50.88;;;3.00;99.90;;;;;;5018547;28;20064;-76
2021/01/11 00:10:10;;;;;;;120.07;51.65;;;3.00;99.90;;;;;;5022993;28;20947;-75
2021/01/11 00:12:41;;;;;;;114.43;50.15;;;3.00;99.90;;;;;;5018496;28;20425;-76
2021/01/11 00:15:08;;;;;;;121.45;50.42;;;3.00;99.90;;;;;;5016196;28;20099;-76
2021/01/11 00:17:35;;;;;;;106.15;46.78;;;3.00;99.90;;;;;;5020332;28;20028;-76
2021/01/11 00:20:01;;;;;;;120.18;49.92;;;3.00;99.90;;;;;;5023584;28;20594;-76
2021/01/11 00:22:27;;;;;;;107.13;45.25;;;3.00;99.90;;;;;;5015404;28;20051;-76
2021/01/11 00:24:52;;;;;;;105.20;48.85;;;3.00;99.90;;;;;;5017392;28;20021;-76
2021/01/11 00:27:18;;;;;;;120.07;53.88;;;3.00;99.90;;;;;;5021847;28;20068;-75
2021/01/11 00:29:43;;;;;;;109.13;51.00;;;3.00;99.90;;;;;;5014868;28;20426;-76
2021/01/11 00:32:09;;;;;;;109.30;50.38;;;3.00;99.90;;;;;;5019413;28;20021;-76
2021/01/11 00:34:35;;;;;;;106.85;50.90;;;3.00;99.90;;;;;;5022601;28;20037;-76
2021/01/11 00:37:00;;;;;;;104.22;51.42;;;3.00;99.90;;;;;;5016957;28;20030;-76
2021/01/11 00:39:27;;;;;;;111.13;53.33;;;3.00;99.90;;;;;;5018863;28;20100;-76
2021/01/11 00:41:59;;;;;;;107.05;50.55;;;3.00;99.90;;;;;;5015769;28;20561;-76
2021/01/11 00:44:26;;;;;;;105.85;52.40;;;3.00;99.90;;;;;;5020823;28;20049;-76
2021/01/11 00:46:51;;;;;;;103.88;50.63;;;3.00;99.90;;;;;;5015502;28;20076;-76
2021/01/11 00:49:18;;;;;;;114.88;55.05;;;3.00;99.90;;;;;;5017859;28;20036;-76
2021/01/11 00:51:46;;;;;;;115.45;58.05;;;3.00;99.90;;;;;;5019270;28;20069;-76
2021/01/11 00:54:11;;;;;;;110.82;55.90;;;3.00;99.90;;;;;;5020737;28;20022;-76
2021/01/11 00:56:37;;;;;;;107.22;53.22;;;3.00;99.90;;;;;;5017263;28;20474;-76
2021/01/11 00:59:03;;;;;;;107.45;53.72;;;3.00;99.90;;;;;;5020110;28;20064;-76
2021/01/11 01:01:28;;;;;;;109.35;51.75;;;3.10;99.90;;;;;;5020029;28;20024;-76
2021/01/11 01:03:54;;;;;;;106.97;52.28;;;3.10;99.90;;;;;;5019247;28;20037;-76
2021/01/11 01:06:20;;;;;;;113.30;52.97;;;3.00;99.90;;;;;;5021210;28;20022;-76
2021/01/11 01:08:46;;;;;;;124.32;55.15;;;3.10;99.90;;;;;;5016152;28;20032;-76
2021/01/11 01:11:11;;;;;;;118.30;55.05;;;3.10;99.90;;;;;;5019749;28;20167;-76
2021/01/11 01:13:38;;;;;;;119.95;56.35;;;3.10;99.90;;;;;;5018648;28;20032;-76
2021/01/11 01:16:05;;;;;;;110.55;53.78;;;3.00;99.90;;;;;;5016661;28;20034;-76
2021/01/11 01:18:31;;;;;;;114.47;56.00;;;3.10;99.90;;;;;;5020335;28;20387;-76
2021/01/11 01:20:56;;;;;;;113.40;56.00;;;3.10;99.90;;;;;;5020900;28;20025;-77
2021/01/11 01:23:23;;;;;;;110.90;53.88;;;3.20;99.90;;;;;;5017972;28;20040;-77
2021/01/11 01:25:48;;;;;;;133.52;59.25;;;3.20;99.90;;;;;;5015643;28;20147;-77
2021/01/11 01:28:14;;;;;;;123.05;54.90;;;3.20;99.90;;;;;;5015309;28;20100;-76
2021/01/11 01:30:40;;;;;;;126.40;56.25;;;3.10;99.90;;;;;;5024591;28;20036;-76
2021/01/11 01:33:05;;;;;;;123.75;54.22;;;3.10;99.90;;;;;;5019905;28;20029;-75
2021/01/11 01:35:31;;;;;;;113.50;51.92;;;3.10;99.90;;;;;;5017625;28;20036;-75
2021/01/11 01:37:57;;;;;;;121.70;53.10;;;3.10;99.90;;;;;;5021125;28;20447;-75
2021/01/11 01:40:24;;;;;;;123.05;53.58;;;3.10;99.90;;;;;;5018833;28;20025;-76
2021/01/11 01:42:51;;;;;;;136.15;55.72;;;3.10;99.90;;;;;;5015670;28;20046;-75
2021/01/11 01:45:17;;;;;;;135.65;55.00;;;3.10;99.90;;;;;;5014573;28;20359;-76
2021/01/11 01:47:44;;;;;;;132.30;56.25;;;3.00;99.90;;;;;;5018700;28;20097;-75
2021/01/11 01:50:11;;;;;;;135.07;55.45;;;3.10;99.90;;;;;;5016928;28;20041;-76
2021/01/11 01:52:38;;;;;;;156.52;61.10;;;3.10;99.90;;;;;;5019720;28;20398;-76
2021/01/11 01:55:09;;;;;;;142.48;57.60;;;3.10;99.90;;;;;;5016138;28;20037;-75
2021/01/11 01:57:36;;;;;;;150.18;58.47;;;3.10;99.90;;;;;;5017889;28;20046;-75
2021/01/11 02:00:04;;;;;;;160.02;62.00;;;3.10;99.90;;;;;;5025980;28;20036;-76
2021/01/11 02:02:29;;;;;;;159.32;59.85;;;3.10;99.90;;;;;;5020914;28;20120;-76
2021/01/11 02:04:55;;;;;;;157.75;58.67;;;3.10;99.90;;;;;;5024152;28;20102;-76
2021/01/11 02:07:32;;;;;;;150.65;56.80;;;3.10;99.90;;;;;;5017926;28;20064;-75
2021/01/11 02:10:20;;;;;;;156.05;60.25;;;3.00;99.90;;;;;;5018087;28;20029;-76
2021/01/11 02:13:37;;;;;;;158.55;60.00;;;3.00;99.90;;;;;;5020685;28;20091;-76
2021/01/11 02:16:18;;;;;;;154.00;58.35;;;3.00;99.90;;;;;;5020353;28;20032;-76
2021/01/11 02:19:09;;;;;;;175.60;60.40;;;3.10;99.90;;;;;;5025419;28;20401;-76
2021/01/11 02:21:56;;;;;;;163.20;62.55;;;3.10;99.90;;;;;;5022442;28;20569;-76
2021/01/11 02:24:56;;;;;;;157.90;60.17;;;3.10;99.90;;;;;;5022152;28;20033;-76
2021/01/11 02:27:45;;;;;;;158.38;60.33;;;3.20;99.90;;;;;;5027093;28;20041;-75
2021/01/11 02:30:25;;;;;;;156.90;58.38;;;3.20;99.90;;;;;;5026765;28;20113;-75
2021/01/11 02:32:56;;;;;;;155.45;57.03;;;3.20;99.90;;;;;;5018999;28;20034;-75
2021/01/11 02:35:22;;;;;;;175.75;60.85;;;3.20;99.90;;;;;;5026982;28;20551;-76
2021/01/11 02:37:48;;;;;;;146.38;56.72;;;3.20;99.90;;;;;;5027958;28;20026;-75
2021/01/11 02:40:14;;;;;;;168.93;60.25;;;3.20;99.90;;;;;;5024558;28;20024;-75
2021/01/11 02:42:40;;;;;;;153.57;58.03;;;3.20;99.90;;;;;;5027275;28;20112;-75
2021/01/11 02:45:08;;;;;;;148.02;59.55;;;3.20;99.90;;;;;;5020064;28;20431;-76
2021/01/11 02:48:02;;;;;;;152.63;59.00;;;3.20;99.90;;;;;;5034054;28;20093;-75
2021/01/11 02:50:34;;;;;;;149.15;53.35;;;3.30;99.90;;;;;;5027519;28;20378;-76
2021/01/11 02:53:15;;;;;;;137.67;54.17;;;3.20;99.90;;;;;;5030755;28;20033;-76
2021/01/11 02:56:01;;;;;;;139.10;53.97;;;3.20;99.90;;;;;;5029084;28;20276;-76
2021/01/11 02:58:43;;;;;;;147.55;57.03;;;3.20;99.90;;;;;;5030715;28;20390;-76
2021/01/11 03:01:11;;;;;;;131.35;51.45;;;3.20;99.90;;;;;;5028483;28;20022;-76
2021/01/11 03:03:38;;;;;;;142.68;53.47;;;3.30;99.90;;;;;;5024207;28;20073;-76
2021/01/11 03:06:04;;;;;;;139.02;53.13;;;3.30;99.90;;;;;;5032432;28;20506;-76
2021/01/11 03:08:30;;;;;;;150.93;56.15;;;3.20;99.90;;;;;;5023570;28;20032;-76
2021/01/11 03:10:55;;;;;;;141.30;53.72;;;3.20;99.90;;;;;;5025053;28;20061;-76
2021/01/11 03:13:21;;;;;;;158.23;57.85;;;3.30;99.90;;;;;;5027006;28;20040;-76
2021/01/11 03:15:47;;;;;;;151.27;54.33;;;3.30;99.90;;;;;;5025606;28;20498;-76
2021/01/11 03:18:12;;;;;;;154.52;57.58;;;3.30;99.90;;;;;;5032615;28;20052;-76
2021/01/11 03:20:38;;;;;;;139.60;55.45;;;3.30;99.90;;;;;;5026339;28;20025;-75
2021/01/11 03:23:04;;;;;;;136.90;55.03;;;3.30;99.90;;;;;;5025275;28;20522;-76
2021/01/11 03:25:29;;;;;;;134.20;54.60;;;3.30;99.90;;;;;;5027357;28;20025;-76
2021/01/11 03:27:55;;;;;;;131.27;53.60;;;3.30;99.90;;;;;;5028174;28;20025;-76
2021/01/11 03:30:21;;;;;;;129.30;53.65;;;3.30;99.90;;;;;;5022902;28;20017;-76
2021/01/11 03:32:50;;;;;;;121.45;48.55;;;3.30;99.90;;;;;;5026092;28;20064;-75
2021/01/11 03:35:16;;;;;;;115.57;50.88;;;3.30;99.90;;;;;;5029587;28;20489;-76
2021/01/11 03:37:41;;;;;;;124.25;53.35;;;3.30;99.90;;;;;;5026906;28;20050;-75
2021/01/11 03:40:08;;;;;;;109.18;51.85;;;3.30;99.90;;;;;;5032843;28;20025;-76
2021/01/11 03:42:37;;;;;;;103.65;47.17;;;3.30;99.90;;;;;;5029983;28;20038;-76
2021/01/11 03:45:05;;;;;;;100.43;47.08;;;3.30;99.90;;;;;;5025371;28;20060;-76
2021/01/11 03:47:30;;;;;;;97.93;46.95;;;3.30;99.90;;;;;;5028639;28;20053;-76
2021/01/11 03:49:57;;;;;;;101.78;47.13;;;3.30;99.90;;;;;;5022741;28;20064;-76
2021/01/11 03:52:24;;;;;;;98.60;45.33;;;3.30;99.90;;;;;;5026103;28;20029;-75
2021/01/11 03:54:50;;;;;;;94.57;45.80;;;3.30;99.90;;;;;;5029922;28;20433;-76
2021/01/11 03:57:16;;;;;;;105.22;49.03;;;3.30;99.90;;;;;;5030221;28;20029;-76
2021/01/11 03:59:41;;;;;;;108.55;48.47;;;3.30;99.90;;;;;;5028736;28;20364;-75
2021/01/11 04:02:08;;;;;;;104.35;48.75;;;3.30;99.90;;;;;;5028925;28;20038;-76
2021/01/11 04:04:33;;;;;;;95.70;47.15;;;3.30;99.90;;;;;;5029400;28;20037;-76
2021/01/11 04:06:59;;;;;;;106.75;49.47;;;3.30;99.90;;;;;;5033935;28;20048;-76
2021/01/11 04:09:25;;;;;;;94.07;47.40;;;3.30;99.90;;;;;;5032891;28;20143;-76
2021/01/11 04:11:51;;;;;;;103.07;51.15;;;3.30;99.90;;;;;;5024869;28;20037;-77
2021/01/11 04:14:18;;;;;;;108.25;52.92;;;3.30;99.90;;;;;;5021153;28;20029;-76
2021/01/11 04:16:44;;;;;;;101.47;49.08;;;3.30;99.90;;;;;;5029144;28;20024;-76
2021/01/11 04:19:10;;;;;;;100.82;47.70;;;3.40;99.90;;;;;;5027275;28;20113;-76
2021/01/11 04:21:37;;;;;;;97.80;47.72;;;3.40;99.90;;;;;;5029232;28;20020;-76
2021/01/11 04:24:04;;;;;;;97.80;47.05;;;3.40;99.90;;;;;;5028455;28;20047;-77
2021/01/11 04:26:30;;;;;;;94.30;49.45;;;3.40;99.90;;;;;;5024775;28;20492;-76
2021/01/11 04:28:55;;;;;;;92.93;47.17;;;3.30;99.90;;;;;;5028798;28;20378;-76
2021/01/11 04:31:21;;;;;;;88.90;43.90;;;3.30;99.90;;;;;;5024605;28;20037;-76
2021/01/11 04:33:47;;;;;;;90.13;43.30;;;3.30;99.90;;;;;;5026468;28;20130;-76
2021/01/11 04:36:13;;;;;;;93.18;42.45;;;3.40;99.90;;;;;;5023033;28;20080;-76
2021/01/11 04:38:38;;;;;;;89.03;41.80;;;3.30;99.90;;;;;;5042781;28;20010;-76
2021/01/11 04:41:04;;;;;;;95.72;43.03;;;3.40;99.90;;;;;;5029477;28;20091;-76
2021/01/11 04:43:42;;;;;;;94.13;43.03;;;3.40;99.90;;;;;;5020770;28;20449;-76
2021/01/11 04:46:07;;;;;;;87.97;41.60;;;3.40;99.90;;;;;;5015584;28;20026;-76
2021/01/11 04:48:34;;;;;;;90.85;41.53;;;3.50;99.90;;;;;;5021335;28;20028;-76
2021/01/11 04:51:01;;;;;;;88.38;42.38;;;3.40;99.90;;;;;;5026998;28;20037;-77
2021/01/11 04:53:27;;;;;;;88.38;41.78;;;3.50;99.90;;;;;;5027434;28;20382;-76
2021/01/11 04:55:54;;;;;;;94.35;40.15;;;3.50;99.90;;;;;;5020062;28;20107;-77
2021/01/11 04:58:21;;;;;;;87.90;40.15;;;3.50;99.90;;;;;;5020356;28;20040;-76
2021/01/11 05:00:48;;;;;;;93.35;40.75;;;3.50;99.90;;;;;;5019196;28;20037;-77
2021/01/11 05:03:14;;;;;;;88.70;39.88;;;3.50;99.90;;;;;;5031981;28;20079;-77
2021/01/11 05:05:44;;;;;;;87.00;39.67;;;3.60;99.90;;;;;;5018005;28;20406;-77
2021/01/11 05:08:10;;;;;;;91.32;40.20;;;3.60;99.90;;;;;;5020731;28;20034;-77
2021/01/11 05:10:37;;;;;;;91.43;40.53;;;3.60;99.90;;;;;;5030910;28;20444;-77
2021/01/11 05:13:08;;;;;;;84.47;39.47;;;3.50;99.90;;;;;;5024939;28;20502;-77
2021/01/11 05:15:39;;;;;;;86.63;39.17;;;3.50;99.90;;;;;;5018949;28;20022;-76
2021/01/11 05:18:19;;;;;;;87.50;38.17;;;3.60;99.90;;;;;;5023522;28;20017;-77
2021/01/11 05:20:45;;;;;;;82.85;39.38;;;3.50;99.90;;;;;;5021920;28;20029;-77
2021/01/11 05:23:15;;;;;;;78.70;37.50;;;3.50;99.90;;;;;;5021027;28;20478;-77
2021/01/11 05:25:43;;;;;;;89.05;38.70;;;3.50;99.90;;;;;;5018437;28;20441;-77
2021/01/11 05:28:12;;;;;;;78.07;35.80;;;3.50;99.90;;;;;;5015500;28;20386;-77
2021/01/11 05:30:48;;;;;;;84.38;37.70;;;3.60;99.90;;;;;;5021822;28;20504;-78
2021/01/11 05:33:21;;;;;;;82.80;37.20;;;3.50;99.90;;;;;;5021829;28;20025;-77
2021/01/11 05:36:08;;;;;;;76.95;36.28;;;3.40;99.90;;;;;;5020112;28;20113;-77
2021/01/11 05:38:36;;;;;;;74.72;35.13;;;3.50;99.90;;;;;;5016886;28;20474;-77
2021/01/11 05:41:21;;;;;;;73.53;34.85;;;3.50;99.90;;;;;;5027644;28;20121;-77
2021/01/11 05:43:47;;;;;;;74.20;34.42;;;3.50;99.90;;;;;;5023609;28;20037;-77
2021/01/11 05:46:22;;;;;;;72.18;34.35;;;3.50;99.90;;;;;;5023193;28;20026;-77
2021/01/11 05:48:59;;;;;;;72.78;34.97;;;3.50;99.90;;;;;;5029972;28;20038;-77
2021/01/11 05:51:29;;;;;;;74.72;35.10;;;3.50;99.90;;;;;;5021655;28;20071;-77
2021/01/11 05:53:55;;;;;;;72.93;36.63;;;3.50;99.90;;;;;;5031349;28;20037;-76
2021/01/11 05:56:22;;;;;;;74.13;34.60;;;3.60;99.90;;;;;;5026505;28;20425;-77
2021/01/11 05:59:08;;;;;;;71.15;34.80;;;3.60;99.90;;;;;;5025892;28;20021;-77
2021/01/11 06:01:36;;;;;;;69.05;34.63;;;3.50;99.90;;;;;;5023198;28;20390;-77
2021/01/11 06:04:02;;;;;;;69.28;35.83;;;3.60;99.90;;;;;;5027120;28;20128;-77
2021/01/11 06:06:28;;;;;;;71.40;36.15;;;3.50;99.90;;;;;;5027311;28;20026;-77
2021/01/11 06:08:53;;;;;;;75.30;37.25;;;3.60;99.90;;;;;;5020531;28;20390;-77
2021/01/11 06:11:26;;;;;;;68.18;35.58;;;3.50;99.90;;;;;;5031854;28;20496;-76
2021/01/11 06:13:56;;;;;;;75.47;38.13;;;3.60;99.90;;;;;;5033596;28;20025;-77
2021/01/11 06:16:24;;;;;;;74.85;41.03;;;3.50;99.90;;;;;;5028656;28;20057;-77
2021/01/11 06:18:52;;;;;;;64.57;35.17;;;3.50;99.90;;;;;;5027076;28;20036;-77
2021/01/11 06:21:21;;;;;;;67.68;36.05;;;3.50;99.90;;;;;;5025394;28;20545;-77
2021/01/11 06:23:47;;;;;;;72.47;37.40;;;3.60;99.90;;;;;;5031846;28;20033;-77
2021/01/11 06:26:25;;;;;;;66.82;35.60;;;3.60;99.90;;;;;;5023117;28;20040;-77
2021/01/11 06:28:51;;;;;;;67.93;36.08;;;3.60;99.90;;;;;;5019448;28;20032;-77
2021/01/11 06:31:17;;;;;;;75.63;38.10;;;3.60;99.90;;;;;;5027212;28;20025;-77
2021/01/11 06:33:44;;;;;;;66.38;35.30;;;3.60;99.90;;;;;;5029679;28;20093;-77
2021/01/11 06:36:28;;;;;;;69.40;36.60;;;3.50;99.90;;;;;;5026359;28;20029;-77
2021/01/11 06:38:54;;;;;;;70.82;37.33;;;3.50;99.90;;;;;;5025883;28;20025;-77
2021/01/11 06:41:26;;;;;;;66.82;35.28;;;3.60;99.90;;;;;;5033868;28;20018;-77
2021/01/11 06:43:54;;;;;;;67.15;35.72;;;3.50;99.90;;;;;;5026551;28;20048;-77
2021/01/11 06:46:28;;;;;;;69.80;36.08;;;3.60;99.90;;;;;;5027623;28;20025;-77
2021/01/11 06:49:02;;;;;;;64.88;34.15;;;3.60;99.90;;;;;;5029507;28;20072;-77
2021/01/11 06:51:39;;;;;;;70.57;35.67;;;3.60;99.90;;;;;;5026683;28;20454;-77
2021/01/11 06:54:16;;;;;;;62.83;35.17;;;3.60;99.90;;;;;;5032164;28;20052;-77
2021/01/11 06:56:43;;;;;;;70.15;35.53;;;3.60;99.90;;;;;;5031882;28;20029;-77
2021/01/11 06:59:11;;;;;;;69.53;38.00;;;3.60;99.90;;;;;;5029696;28;20413;-77
2021/01/11 07:01:40;;;;;;;67.47;38.10;;;3.60;99.90;;;;;;5022139;28;20995;-77
2021/01/11 07:04:07;;;;;;;68.57;37.58;;;3.60;99.90;;;;;;5025015;28;20534;-77
2021/01/11 07:06:40;;;;;;;72.22;38.28;;;3.60;99.90;;;;;;5025394;28;20021;-77
2021/01/11 07:09:18;;;;;;;65.97;40.13;;;3.60;99.90;;;;;;5024350;28;20047;-77
2021/01/11 07:11:48;;;;;;;69.75;39.80;;;3.70;99.90;;;;;;5032194;28;20048;-77
2021/01/11 07:14:20;;;;;;;71.68;40.45;;;3.70;99.90;;;;;;5024102;28;20112;-77
2021/01/11 07:16:52;;;;;;;69.40;39.60;;;3.60;99.90;;;;;;5023008;28;20117;-78
2021/01/11 07:19:43;;;;;;;71.90;39.50;;;3.60;99.90;;;;;;5029858;28;20052;-77
2021/01/11 07:22:12;;;;;;;67.85;37.53;;;3.60;99.90;;;;;;5029840;28;20287;-78
2021/01/11 07:24:42;;;;;;;73.38;39.42;;;3.60;99.90;;;;;;5027348;28;20497;-78
2021/01/11 07:27:08;;;;;;;67.95;37.90;;;3.70;99.90;;;;;;5031831;28;20036;-78
2021/01/11 07:29:34;;;;;;;68.53;38.58;;;3.60;99.90;;;;;;5029064;28;20021;-78
2021/01/11 07:32:00;;;;;;;72.35;39.67;;;3.60;99.90;;;;;;5026544;28;20030;-78
2021/01/11 07:34:26;;;;;;;76.32;39.25;;;3.60;99.90;;;;;;5023205;28;20017;-78
2021/01/11 07:36:55;;;;;;;74.03;40.00;;;3.60;99.90;;;;;;5031242;28;20443;-78
2021/01/11 07:39:27;;;;;;;80.28;40.70;;;3.60;99.90;;;;;;5028261;28;20052;-78
2021/01/11 07:42:04;;;;;;;79.70;40.38;;;3.60;99.90;;;;;;5029327;28;20022;-78
2021/01/11 07:44:33;;;;;;;73.18;37.88;;;3.60;99.90;;;;;;5025154;28;20481;-77
2021/01/11 07:46:59;;;;;;;72.25;38.50;;;3.60;99.90;;;;;;5027163;28;20095;-78
2021/01/11 07:49:27;;;;;;;76.38;39.28;;;3.60;99.90;;;;;;5030616;28;20029;-78
2021/01/11 07:51:54;;;;;;;75.07;38.08;;;3.60;99.90;;;;;;5028510;28;20013;-78
2021/01/11 07:54:22;;;;;;;77.28;39.35;;;3.60;99.90;;;;;;5029691;28;20028;-78
2021/01/11 07:56:50;;;;;;;78.93;40.00;;;3.60;99.90;;;;;;5020727;28;20033;-78
2021/01/11 07:59:17;;;;;;;78.70;38.45;;;3.60;99.90;;;;;;5026566;28;20022;-78
2021/01/11 08:01:45;;;;;;;85.85;41.55;;;3.60;99.90;;;;;;5023113;28;20167;-78
2021/01/11 08:04:12;;;;;;;87.80;41.08;;;3.60;99.90;;;;;;5030622;28;20117;-78
2021/01/11 08:06:49;;;;;;;80.95;39.28;;;3.60;99.90;;;;;;5024501;28;20168;-78
2021/01/11 08:09:15;;;;;;;89.80;39.95;;;3.60;99.90;;;;;;5024249;28;20690;-78
2021/01/11 08:11:42;;;;;;;80.82;39.58;;;3.60;99.90;;;;;;5031093;28;20029;-78
2021/01/11 08:14:08;;;;;;;79.90;37.30;;;3.60;99.90;;;;;;5026276;28;20030;-78
2021/01/11 08:16:40;;;;;;;90.95;40.28;;;3.50;99.90;;;;;;5025290;28;20175;-78
2021/01/11 08:19:10;;;;;;;88.80;40.38;;;3.60;99.90;;;;;;5024560;28;20025;-77
2021/01/11 08:21:39;;;;;;;89.43;39.88;;;3.60;99.90;;;;;;5017743;28;20048;-78
2021/01/11 08:24:07;;;;;;;85.93;38.60;;;3.60;99.90;;;;;;5022646;28;20033;-78
2021/01/11 08:26:57;;;;;;;82.97;38.70;;;3.50;99.90;;;;;;5014515;28;20160;-78
2021/01/11 08:29:23;;;;;;;89.43;39.90;;;3.60;99.90;;;;;;5012181;28;20505;-78
2021/01/11 08:31:49;;;;;;;91.65;39.83;;;3.50;99.90;;;;;;5028104;28;20021;-78
2021/01/11 08:34:15;;;;;;;95.28;40.35;;;3.60;99.90;;;;;;5024885;28;20424;-78
2021/01/11 08:36:40;;;;;;;87.38;39.05;;;3.60;99.90;;;;;;5022762;28;20033;-78
2021/01/11 08:39:10;;;;;;;88.55;38.92;;;3.60;99.90;;;;;;5014367;28;20033;-76
2021/01/11 08:41:47;;;;;;;92.53;41.53;;;3.60;99.90;;;;;;5015382;28;20034;-77
2021/01/11 08:44:24;;;;;;;84.70;39.25;;;3.60;99.90;;;;;;5022171;28;22319;-77
2021/01/11 08:46:53;;;;;;;85.57;37.83;;;3.60;99.90;;;;;;5027214;28;20029;-76
2021/01/11 08:49:20;;;;;;;90.22;40.40;;;3.60;99.90;;;;;;5018603;28;20029;-77
2021/01/11 08:51:47;;;;;;;93.07;38.08;;;3.50;99.90;;;;;;5023799;28;20033;-75
2021/01/11 08:54:26;;;;;;;84.68;39.88;;;3.50;99.90;;;;;;5025653;28;20021;-76
2021/01/11 08:56:54;;;;;;;85.95;40.65;;;3.60;99.90;;;;;;5018244;28;20029;-76
2021/01/11 08:59:20;;;;;;;85.50;38.65;;;3.70;99.90;;;;;;5028835;28;20013;-77
2021/01/11 09:01:46;;;;;;;88.28;38.85;;;3.60;99.90;;;;;;5025064;28;20029;-76
2021/01/11 09:04:31;;;;;;;85.50;37.55;;;3.60;99.90;;;;;;5022804;28;20116;-77
2021/01/11 09:07:01;;;;;;;82.63;38.88;;;3.70;99.90;;;;;;5020702;28;20056;-76
2021/01/11 09:09:28;;;;;;;87.82;41.17;;;3.70;99.90;;;;;;5018249;28;20057;-75
2021/01/11 09:12:02;;;;;;;86.65;38.47;;;3.70;99.90;;;;;;5019258;28;20034;-75
2021/01/11 09:14:28;;;;;;;84.32;39.67;;;3.70;99.90;;;;;;5018940;28;20079;-76
2021/01/11 09:17:07;;;;;;;87.70;39.38;;;3.80;99.90;;;;;;5023439;28;20045;-76
2021/01/11 09:19:32;;;;;;;89.50;40.45;;;3.80;99.90;;;;;;5039710;28;20045;-76
2021/01/11 09:22:14;;;;;;;85.10;41.20;;;3.70;99.90;;;;;;5019961;28;20041;-77
2021/01/11 09:24:42;;;;;;;81.40;40.25;;;3.80;99.90;;;;;;5021022;28;20037;-76
2021/01/11 09:27:08;;;;;;;85.55;39.20;;;3.80;99.90;;;;;;5027049;28;20492;-76
2021/01/11 09:29:34;;;;;;;82.60;39.70;;;3.80;99.90;;;;;;5032029;28;20024;-77
2021/01/11 09:31:59;;;;;;;85.80;40.00;;;3.80;99.90;;;;;;5023098;28;20017;-77
2021/01/11 09:34:25;;;;;;;78.53;38.22;;;3.80;99.90;;;;;;5020029;28;20087;-78
2021/01/11 09:36:50;;;;;;;80.53;40.13;;;3.80;99.90;;;;;;5028815;28;20063;-77
2021/01/11 09:39:17;;;;;;;82.90;39.05;;;3.80;99.90;;;;;;5023178;28;20069;-77
2021/01/11 09:41:46;;;;;;;79.13;38.72;;;3.70;99.90;;;;;;5021491;28;20053;-77
2021/01/11 09:44:13;;;;;;;81.90;37.72;;;3.80;99.90;;;;;;5034639;28;20104;-77
2021/01/11 09:46:43;;;;;;;79.53;37.28;;;3.90;99.90;;;;;;5036453;28;20409;-77
2021/01/11 09:49:09;;;;;;;80.63;37.92;;;3.80;99.90;;;;;;5021574;28;20034;-77
2021/01/11 09:51:35;;;;;;;75.82;36.67;;;3.90;99.90;;;;;;5021413;28;20026;-77
2021/01/11 09:54:01;;;;;;;77.55;38.22;;;3.90;99.90;;;;;;5022299;28;20048;-76
2021/01/11 09:56:26;;;;;;;75.15;37.78;;;3.80;99.90;;;;;;5022533;28;20126;-76
2021/01/11 09:58:53;;;;;;;68.07;35.33;;;3.90;99.90;;;;;;5032870;28;20030;-76
2021/01/11 10:01:19;;;;;;;73.45;37.22;;;3.80;99.90;;;;;;5022894;28;20044;-76
2021/01/11 10:03:47;;;;;;;74.13;36.60;;;3.90;99.90;;;;;;5024882;28;20045;-77
2021/01/11 10:06:13;;;;;;;69.13;36.75;;;4.00;99.90;;;;;;5028839;28;20532;-77
2021/01/11 10:08:39;;;;;;;69.30;34.63;;;4.00;99.90;;;;;;5024392;28;20025;-76
2021/01/11 10:11:14;;;;;;;64.55;31.80;;;4.10;99.90;;;;;;5027546;28;20366;-77
2021/01/11 10:13:41;;;;;;;59.75;32.67;;;4.00;99.90;;;;;;5029748;28;20042;-76
2021/01/11 10:16:07;;;;;;;62.80;31.27;;;4.00;99.90;;;;;;5033287;28;20067;-77
2021/01/11 10:18:33;;;;;;;63.88;31.63;;;4.10;99.90;;;;;;5030647;28;20469;-76
2021/01/11 10:20:58;;;;;;;59.83;31.42;;;4.10;99.90;;;;;;5023097;28;20034;-76
2021/01/11 10:23:24;;;;;;;58.33;30.63;;;4.20;99.90;;;;;;5028346;28;20505;-77
2021/01/11 10:25:49;;;;;;;57.78;30.27;;;4.20;99.90;;;;;;5031553;28;20026;-77
2021/01/11 10:28:15;;;;;;;62.35;32.10;;;4.10;99.90;;;;;;5023393;28;20821;-77
2021/01/11 10:30:41;;;;;;;55.00;30.00;;;4.20;99.90;;;;;;5031091;28;20026;-76
2021/01/11 10:33:07;;;;;;;55.50;30.42;;;4.20;99.90;;;;;;5022350;28;20025;-76
2021/01/11 10:35:33;;;;;;;58.85;31.15;;;4.30;99.90;;;;;;5025230;28;20032;-77
2021/01/11 10:37:59;;;;;;;56.60;31.90;;;4.40;99.90;;;;;;5033358;28;20022;-76
2021/01/11 10:40:25;;;;;;;54.70;31.35;;;4.40;99.90;;;;;;5023345;28;20478;-76
2021/01/11 10:42:50;;;;;;;54.00;32.47;;;4.40;99.90;;;;;;5023963;28;20057;-77
2021/01/11 10:45:16;;;;;;;50.33;27.65;;;4.40;99.90;;;;;;5022362;28;20026;-77
2021/01/11 10:47:42;;;;;;;49.42;28.88;;;4.40;99.90;;;;;;5020717;28;20061;-77
2021/01/11 10:50:09;;;;;;;50.33;29.50;;;4.60;99.90;;;;;;5032686;28;20028;-76
2021/01/11 10:52:34;;;;;;;50.75;28.90;;;4.60;99.90;;;;;;5030348;28;20180;-76
2021/01/11 10:55:00;;;;;;;47.55;27.50;;;4.60;99.90;;;;;;5020598;28;20117;-77
2021/01/11 10:57:25;;;;;;;51.42;28.17;;;4.60;99.90;;;;;;5025681;28;20455;-77
2021/01/11 10:59:51;;;;;;;46.72;27.02;;;4.70;99.90;;;;;;5029388;28;20076;-76
2021/01/11 11:02:17;;;;;;;45.85;26.05;;;4.70;99.90;;;;;;5035636;28;20054;-76
2021/01/11 11:04:43;;;;;;;45.40;27.58;;;4.70;99.90;;;;;;5023922;28;20087;-76
2021/01/11 11:07:08;;;;;;;46.95;26.65;;;4.70;99.90;;;;;;5023963;28;20054;-76
2021/01/11 11:09:34;;;;;;;47.65;25.90;;;4.70;99.90;;;;;;5032109;28;20517;-76
2021/01/11 11:11:59;;;;;;;49.53;26.10;;;4.70;99.90;;;;;;5030564;28;20068;-76
2021/01/11 11:14:25;;;;;;;44.75;26.98;;;4.70;99.90;;;;;;5033066;28;20026;-76
2021/01/11 11:16:53;;;;;;;48.40;27.55;;;4.80;99.90;;;;;;5030735;28;20448;-76
2021/01/11 11:19:19;;;;;;;42.05;23.63;;;4.80;99.90;;;;;;5030992;28;20030;-75
2021/01/11 11:21:44;;;;;;;39.85;23.90;;;4.80;99.90;;;;;;5030950;28;20440;-75
2021/01/11 11:24:10;;;;;;;41.95;24.77;;;4.90;99.90;;;;;;5030473;28;20040;-75
2021/01/11 11:26:35;;;;;;;43.53;24.88;;;4.80;99.90;;;;;;5026585;28;20021;-75
2021/01/11 11:29:01;;;;;;;42.65;23.45;;;4.80;99.90;;;;;;5020516;28;20040;-76
2021/01/11 11:31:33;;;;;;;42.05;25.00;;;4.70;99.90;;;;;;5011184;28;20094;-77
2021/01/11 11:33:59;;;;;;;40.42;22.42;;;4.80;99.90;;;;;;5019611;28;20024;-76
2021/01/11 11:36:24;;;;;;;42.15;23.25;;;4.70;99.90;;;;;;5023370;28;20022;-78
2021/01/11 11:38:50;;;;;;;43.47;24.20;;;4.70;99.90;;;;;;5018265;28;20030;-77
2021/01/11 11:41:19;;;;;;;40.40;23.63;;;4.70;99.90;;;;;;5024075;28;20025;-76
2021/01/11 11:43:45;;;;;;;42.55;24.35;;;4.70;99.90;;;;;;5022675;28;20048;-76
2021/01/11 11:46:13;;;;;;;40.53;24.75;;;4.80;99.90;;;;;;5038213;28;20045;-76
2021/01/11 11:48:38;;;;;;;42.92;25.50;;;4.90;99.90;;;;;;5022508;28;20021;-75
2021/01/11 11:51:04;;;;;;;37.08;21.48;;;4.90;99.90;;;;;;5022595;28;20358;-75
2021/01/11 11:53:30;;;;;;;41.70;23.77;;;4.90;99.90;;;;;;5028593;28;20053;-80
2021/01/11 11:55:56;;;;;;;41.88;23.83;;;4.90;99.90;;;;;;5022797;28;20485;-76
2021/01/11 11:58:21;;;;;;;43.50;24.45;;;4.90;99.90;;;;;;5025213;28;20041;-75
2021/01/11 12:00:47;;;;;;;41.85;24.63;;;5.00;99.90;;;;;;5025269;28;20037;-75
2021/01/11 12:03:13;;;;;;;42.13;24.33;;;5.00;99.90;;;;;;5019957;28;20028;-75
2021/01/11 12:05:38;;;;;;;41.63;23.83;;;5.10;99.90;;;;;;5022116;28;20056;-75
2021/01/11 12:08:04;;;;;;;40.83;23.58;;;5.00;99.90;;;;;;5016912;28;20030;-75
2021/01/11 12:10:30;;;;;;;40.35;24.05;;;5.00;99.90;;;;;;5022808;28;20033;-75
2021/01/11 12:12:56;;;;;;;37.75;24.40;;;5.00;99.90;;;;;;5017960;28;20048;-75
2021/01/11 12:15:21;;;;;;;41.88;24.23;;;5.00;99.90;;;;;;5023419;28;20110;-75
2021/01/11 12:17:47;;;;;;;39.03;23.23;;;5.00;99.90;;;;;;5021698;28;20044;-76
2021/01/11 12:20:14;;;;;;;40.90;23.77;;;5.00;99.90;;;;;;5021490;28;20466;-75
2021/01/11 12:22:40;;;;;;;44.22;24.50;;;5.10;99.90;;;;;;5022438;28;20017;-77
2021/01/11 12:25:06;;;;;;;42.85;25.50;;;5.20;99.90;;;;;;5020998;28;20029;-76
2021/01/11 12:27:32;;;;;;;47.03;24.90;;;5.20;99.90;;;;;;5022914;28;20009;-75
2021/01/11 12:30:03;;;;;;;45.47;27.88;;;5.10;99.90;;;;;;5023122;28;20504;-75
2021/01/11 12:32:28;;;;;;;42.92;24.27;;;5.20;99.90;;;;;;5020688;28;20032;-75
2021/01/11 12:34:54;;;;;;;44.33;27.83;;;5.30;99.90;;;;;;5018760;28;20529;-75
2021/01/11 12:37:20;;;;;;;41.08;25.92;;;5.30;99.90;;;;;;5021558;28;20044;-76
2021/01/11 12:39:46;;;;;;;40.08;23.77;;;5.30;99.90;;;;;;5024602;28;20025;-76